Time;durP1;ratioP1;P1;durP2;ratioP2;P2;SDS_P1;SDS_P2;PMS_P1;PMS_P2;Temp;Humidity;BMP_temperature;BMP_pressure;BME280_temperature;BME280_humidity;BME280_pressure;Samples;Min_cycle;Max_cycle;Signal;HPM_P1;HPM_P2
2022/07/29 00:00:45;;;;;;;2.85;2.35;;;26.60;85.20;;;;;;5035315;28;20037;-26
2022/07/29 00:03:14;;;;;;;3.30;2.30;;;26.60;85.20;;;;;;5035323;28;20079;-26
2022/07/29 00:05:41;;;;;;;3.00;1.92;;;26.60;85.30;;;;;;5035327;28;20025;-26
2022/07/29 00:08:08;;;;;;;3.10;1.90;;;26.60;85.20;;;;;;5034972;28;20105;-26
2022/07/29 00:10:34;;;;;;;3.60;2.47;;;26.60;85.30;;;;;;5034942;28;20598;-26
2022/07/29 00:12:59;;;;;;;2.88;1.83;;;26.50;85.30;;;;;;5035177;28;20117;-26
2022/07/29 00:15:25;;;;;;;5.57;2.58;;;26.50;85.40;;;;;;5035145;28;20068;-26
2022/07/29 00:17:51;;;;;;;6.20;2.20;;;26.50;85.60;;;;;;5035039;28;20545;-26
2022/07/29 00:20:16;;;;;;;3.33;2.13;;;26.50;85.50;;;;;;5034890;28;20105;-26
2022/07/29 00:22:42;;;;;;;4.18;2.30;;;26.50;85.60;;;;;;5035035;28;20438;-26
2022/07/29 00:25:08;;;;;;;4.22;2.15;;;26.50;85.80;;;;;;5034791;28;20030;-26
2022/07/29 00:27:34;;;;;;;4.25;2.50;;;26.50;85.70;;;;;;5034775;28;20033;-26
2022/07/29 00:30:00;;;;;;;3.70;2.08;;;26.50;85.80;;;;;;5034461;28;20353;-26
2022/07/29 00:32:26;;;;;;;4.35;2.40;;;26.40;85.80;;;;;;5034855;28;20040;-26
2022/07/29 00:37:36;;;;;;;2.88;2.03;;;26.40;85.70;;;;;;5034616;28;20399;-26
2022/07/29 00:40:02;;;;;;;3.67;2.40;;;26.40;85.70;;;;;;5015452;28;20025;-26
2022/07/29 00:42:27;;;;;;;3.65;2.28;;;26.40;85.70;;;;;;5034621;28;20029;-26
2022/07/29 00:44:53;;;;;;;4.07;2.35;;;26.40;85.70;;;;;;5034565;28;20551;-26
2022/07/29 00:47:19;;;;;;;4.18;2.45;;;26.40;86.60;;;;;;5034468;28;20037;-26
2022/07/29 00:49:44;;;;;;;4.28;2.33;;;26.40;85.90;;;;;;5034257;28;20029;-26
2022/07/29 00:52:11;;;;;;;4.13;2.25;;;26.40;86.00;;;;;;5034298;28;20022;-26
2022/07/29 00:54:38;;;;;;;4.30;2.25;;;26.40;86.10;;;;;;5034333;28;20475;-26
2022/07/29 00:57:07;;;;;;;4.72;2.47;;;26.40;86.00;;;;;;5034391;28;20533;-26
2022/07/29 00:59:33;;;;;;;5.18;2.55;;;26.40;86.00;;;;;;5034132;28;20395;-26
2022/07/29 01:01:59;;;;;;;3.35;2.35;;;26.40;86.10;;;;;;5034201;28;20021;-26
2022/07/29 01:04:25;;;;;;;8.27;2.40;;;26.40;86.10;;;;;;5034212;28;20033;-26
2022/07/29 01:06:52;;;;;;;3.05;2.17;;;26.40;86.10;;;;;;5034084;28;20494;-26
2022/07/29 01:09:18;;;;;;;5.55;2.35;;;26.40;86.20;;;;;;5033994;28;20029;-26
2022/07/29 01:11:47;;;;;;;3.15;2.10;;;26.40;86.10;;;;;;5034035;28;20020;-26
2022/07/29 01:14:14;;;;;;;3.90;2.08;;;26.40;86.20;;;;;;5034026;28;20445;-26
2022/07/29 01:17:13;;;;;;;3.67;2.08;;;26.40;87.10;;;;;;5033960;28;20029;-26
2022/07/29 01:19:45;;;;;;;2.65;1.95;;;26.30;86.10;;;;;;5020354;28;20041;-26
2022/07/29 01:22:19;;;;;;;2.80;2.15;;;26.30;86.30;;;;;;5033853;28;20025;-26
2022/07/29 01:25:19;;;;;;;3.72;2.47;;;26.30;86.30;;;;;;5016016;28;20029;-26
2022/07/29 01:27:51;;;;;;;3.55;2.40;;;26.30;86.30;;;;;;5033627;28;20024;-26
2022/07/29 01:30:17;;;;;;;2.95;2.03;;;26.30;86.30;;;;;;5033468;28;20025;-26
2022/07/29 01:32:49;;;;;;;3.47;2.20;;;26.30;86.30;;;;;;5033732;28;20445;-26
2022/07/29 01:35:25;;;;;;;4.10;2.10;;;26.30;86.30;;;;;;5033637;28;20387;-26
2022/07/29 01:38:02;;;;;;;4.80;2.25;;;26.30;86.30;;;;;;5033465;28;20022;-26
2022/07/29 01:40:40;;;;;;;6.10;2.30;;;26.30;86.40;;;;;;5033269;28;20033;-26
2022/07/29 01:43:12;;;;;;;4.75;2.30;;;26.30;86.30;;;;;;5033492;28;20090;-26
2022/07/29 01:45:42;;;;;;;3.60;2.00;;;26.30;86.40;;;;;;5033496;28;20105;-26
2022/07/29 01:48:54;;;;;;;2.67;2.10;;;26.30;86.40;;;;;;5033229;28;20518;-26
2022/07/29 01:51:39;;;;;;;3.00;1.88;;;26.30;86.30;;;;;;4971969;28;20074;-26
2022/07/29 01:54:18;;;;;;;5.55;2.20;;;26.20;86.30;;;;;;5033261;28;20043;-26
2022/07/29 01:56:46;;;;;;;3.95;2.30;;;26.20;86.30;;;;;;5033141;28;20014;-26
2022/07/29 01:59:12;;;;;;;4.97;2.30;;;26.20;86.50;;;;;;5033000;28;20029;-26
2022/07/29 02:01:42;;;;;;;3.15;2.00;;;26.20;86.50;;;;;;5033101;28;20022;-26
2022/07/29 02:04:10;;;;;;;4.35;2.30;;;26.20;86.60;;;;;;5033047;28;20022;-26
2022/07/29 02:06:38;;;;;;;4.43;2.53;;;26.20;86.60;;;;;;5032994;28;20025;-26
2022/07/29 02:09:06;;;;;;;4.85;2.40;;;26.20;86.70;;;;;;5032889;28;20026;-26
2022/07/29 02:11:33;;;;;;;3.90;2.45;;;26.20;86.70;;;;;;5032895;28;20025;-26
2022/07/29 02:14:00;;;;;;;3.17;2.10;;;26.20;86.70;;;;;;5032925;28;20021;-26
2022/07/29 02:16:30;;;;;;;3.75;2.38;;;26.20;86.70;;;;;;5032996;28;20387;-26
2022/07/29 02:18:59;;;;;;;3.28;2.22;;;26.20;86.70;;;;;;5032636;28;20082;-26
2022/07/29 02:21:27;;;;;;;3.00;2.25;;;26.20;86.70;;;;;;5032739;28;20024;-26
2022/07/29 02:23:54;;;;;;;3.17;2.10;;;26.20;86.80;;;;;;5032535;28;20029;-26
2022/07/29 02:26:22;;;;;;;3.17;1.75;;;26.20;86.80;;;;;;5032669;28;20025;-26
2022/07/29 02:28:51;;;;;;;3.17;2.22;;;26.20;86.80;;;;;;5032337;28;20026;-26
2022/07/29 02:31:21;;;;;;;4.78;2.42;;;26.10;86.70;;;;;;5032413;28;20400;-26
2022/07/29 02:33:47;;;;;;;4.20;2.00;;;26.10;86.80;;;;;;5032475;28;20018;-25
2022/07/29 02:36:15;;;;;;;3.35;2.00;;;26.10;86.80;;;;;;5032410;28;20025;-26
2022/07/29 02:38:50;;;;;;;5.18;2.40;;;26.10;86.90;;;;;;5032166;28;20112;-26
2022/07/29 02:41:50;;;;;;;3.65;2.40;;;26.10;86.80;;;;;;5032386;28;20025;-26
2022/07/29 02:44:23;;;;;;;4.22;2.33;;;26.10;86.90;;;;;;4999780;28;20109;-25
2022/07/29 02:47:19;;;;;;;2.78;2.20;;;26.10;87.00;;;;;;5032268;28;20017;-25
2022/07/29 02:49:53;;;;;;;3.90;2.05;;;26.10;87.00;;;;;;5023996;28;20546;-25
2022/07/29 02:52:34;;;;;;;3.80;2.45;;;26.10;87.10;;;;;;5032194;28;20029;-26
2022/07/29 02:55:02;;;;;;;4.50;2.22;;;26.10;87.10;;;;;;5032121;28;20388;-26
2022/07/29 02:57:40;;;;;;;3.15;2.03;;;26.10;87.10;;;;;;5032161;28;20025;-25
2022/07/29 03:00:09;;;;;;;3.20;2.20;;;26.10;87.20;;;;;;5032152;28;20028;-25
2022/07/29 03:02:42;;;;;;;4.80;2.30;;;26.10;87.30;;;;;;5031600;28;20112;-25
2022/07/29 03:05:12;;;;;;;3.10;2.15;;;26.00;87.20;;;;;;5032047;28;20075;-25
2022/07/29 03:07:40;;;;;;;4.78;2.38;;;26.10;87.20;;;;;;5031796;28;20028;-26
2022/07/29 03:10:08;;;;;;;2.78;2.00;;;26.00;87.10;;;;;;5031746;28;20049;-25
2022/07/29 03:12:35;;;;;;;5.80;2.50;;;26.00;87.00;;;;;;5031969;28;20410;-25
2022/07/29 03:15:01;;;;;;;5.07;2.47;;;26.00;87.00;;;;;;5031975;28;20472;-25
2022/07/29 03:17:27;;;;;;;3.63;2.30;;;26.00;87.00;;;;;;5031970;28;20406;-25
2022/07/29 03:19:54;;;;;;;3.70;2.20;;;26.00;86.90;;;;;;5031638;28;20074;-25
2022/07/29 03:22:20;;;;;;;4.18;2.20;;;26.00;87.00;;;;;;5031719;28;20108;-25
2022/07/29 03:24:46;;;;;;;2.85;1.90;;;26.10;87.00;;;;;;5031829;28;20100;-26
2022/07/29 03:27:12;;;;;;;4.03;2.33;;;26.00;86.90;;;;;;5031828;28;20035;-26
2022/07/29 03:29:37;;;;;;;3.55;2.30;;;26.00;86.90;;;;;;5031542;28;20057;-25
2022/07/29 03:32:05;;;;;;;2.85;2.13;;;26.00;86.90;;;;;;5031644;28;20364;-26
2022/07/29 03:34:30;;;;;;;3.75;2.38;;;26.00;86.90;;;;;;5031689;28;20029;-26
2022/07/29 03:36:56;;;;;;;3.65;2.15;;;26.00;86.90;;;;;;5031633;28;20025;-25
2022/07/29 03:39:26;;;;;;;4.32;2.05;;;26.00;86.90;;;;;;5031683;28;20033;-26
2022/07/29 03:41:55;;;;;;;3.60;1.88;;;26.00;86.90;;;;;;5031684;28;20045;-26
2022/07/29 03:44:22;;;;;;;3.38;2.15;;;25.90;86.80;;;;;;5031710;28;20102;-26
2022/07/29 03:46:50;;;;;;;2.47;2.03;;;25.90;86.80;;;;;;5031642;28;20037;-26
2022/07/29 03:49:18;;;;;;;7.00;1.95;;;25.90;86.80;;;;;;5031225;28;20029;-25
2022/07/29 03:51:44;;;;;;;2.97;2.08;;;25.90;86.80;;;;;;5031464;28;20104;-25
2022/07/29 03:54:10;;;;;;;3.05;2.25;;;25.90;86.80;;;;;;5031647;28;20471;-25
2022/07/29 03:56:40;;;;;;;4.78;2.17;;;25.90;86.80;;;;;;5031558;28;20025;-26
2022/07/29 03:59:07;;;;;;;2.72;2.10;;;25.90;86.80;;;;;;5031320;28;20064;-26
2022/07/29 04:01:35;;;;;;;3.70;2.13;;;25.90;86.80;;;;;;5031446;28;20033;-25
2022/07/29 04:04:02;;;;;;;3.33;2.22;;;25.90;86.80;;;;;;5031479;28;20031;-25
2022/07/29 04:06:27;;;;;;;3.75;2.60;;;25.90;86.70;;;;;;5031431;28;20053;-26
2022/07/29 04:08:53;;;;;;;3.25;2.28;;;25.90;86.70;;;;;;5031193;28;20072;-26
2022/07/29 04:11:19;;;;;;;4.38;2.40;;;25.90;86.70;;;;;;5031432;28;20049;-26
2022/07/29 04:13:44;;;;;;;5.25;2.42;;;25.90;86.70;;;;;;5031521;28;20029;-25
2022/07/29 04:16:10;;;;;;;3.50;2.25;;;25.90;86.70;;;;;;5035097;28;20025;-25
2022/07/29 04:18:36;;;;;;;3.78;2.40;;;25.90;86.70;;;;;;5034831;28;20033;-25
2022/07/29 04:21:03;;;;;;;5.13;2.33;;;25.80;86.70;;;;;;5034894;28;20399;-26
2022/07/29 04:23:34;;;;;;;2.95;2.38;;;25.80;86.70;;;;;;5035027;28;20036;-25
2022/07/29 04:26:00;;;;;;;5.10;2.63;;;25.80;86.70;;;;;;5035021;28;20479;-25
2022/07/29 04:28:26;;;;;;;7.95;2.60;;;25.80;86.70;;;;;;5034604;28;20112;-25
2022/07/29 04:30:52;;;;;;;3.20;2.42;;;25.80;86.70;;;;;;5034528;28;20168;-26
2022/07/29 04:33:17;;;;;;;3.28;2.20;;;25.80;86.80;;;;;;5034826;28;20093;-25
2022/07/29 04:35:43;;;;;;;3.75;2.50;;;25.80;86.70;;;;;;5016981;28;20483;-25
2022/07/29 04:38:08;;;;;;;6.63;2.20;;;25.70;86.60;;;;;;5034563;28;20032;-25
2022/07/29 04:40:34;;;;;;;3.10;2.40;;;25.80;86.70;;;;;;5034549;28;20036;-25
2022/07/29 04:43:01;;;;;;;3.28;2.22;;;25.70;86.60;;;;;;5034631;28;20025;-26
2022/07/29 04:45:27;;;;;;;5.53;2.50;;;25.70;86.60;;;;;;5034435;28;20029;-26
2022/07/29 04:47:53;;;;;;;3.03;2.20;;;25.70;86.60;;;;;;5034367;28;20138;-25
2022/07/29 04:50:19;;;;;;;3.10;2.20;;;25.80;86.70;;;;;;5034194;28;20108;-25
2022/07/29 04:52:44;;;;;;;3.15;2.10;;;25.70;86.70;;;;;;5034480;28;20029;-26
2022/07/29 04:55:10;;;;;;;3.88;2.40;;;25.70;86.60;;;;;;5034423;28;20018;-26
2022/07/29 04:57:36;;;;;;;2.63;2.35;;;25.70;86.70;;;;;;5034345;28;20438;-25
2022/07/29 05:00:02;;;;;;;3.72;2.28;;;25.70;86.70;;;;;;5033921;28;20030;-26
2022/07/29 05:02:28;;;;;;;2.00;1.70;;;25.70;86.70;;;;;;5034175;28;20021;-26
2022/07/29 05:04:53;;;;;;;4.05;2.13;;;25.70;86.70;;;;;;5034182;28;20021;-25
2022/07/29 05:07:19;;;;;;;2.97;2.28;;;25.70;86.80;;;;;;5034178;28;20443;-26
2022/07/29 05:09:45;;;;;;;2.58;2.28;;;25.70;86.80;;;;;;5033921;28;20371;-25
2022/07/29 05:12:11;;;;;;;3.42;2.35;;;25.70;86.80;;;;;;5034043;28;20021;-26
2022/07/29 05:14:37;;;;;;;3.75;1.92;;;25.70;86.80;;;;;;5033941;28;20105;-26
2022/07/29 05:17:02;;;;;;;2.72;1.90;;;25.70;86.80;;;;;;5034266;28;20097;-25
2022/07/29 05:19:28;;;;;;;3.97;2.08;;;25.70;86.80;;;;;;5033698;28;20113;-26
2022/07/29 05:21:54;;;;;;;3.53;2.10;;;25.70;86.90;;;;;;5033864;28;20030;-26
2022/07/29 05:24:19;;;;;;;5.38;2.28;;;25.70;87.00;;;;;;5033899;28;20021;-26
2022/07/29 05:26:45;;;;;;;3.05;2.22;;;25.70;87.00;;;;;;5033202;28;20048;-25
2022/07/29 05:29:11;;;;;;;2.42;1.90;;;25.70;87.00;;;;;;5033262;28;20029;-25
2022/07/29 05:31:36;;;;;;;2.83;2.08;;;25.70;87.10;;;;;;5033991;28;20109;-26
2022/07/29 05:34:02;;;;;;;3.22;1.92;;;25.70;87.20;;;;;;5015944;28;20030;-26
2022/07/29 05:36:28;;;;;;;2.63;1.80;;;25.70;87.20;;;;;;5033668;28;20032;-26
2022/07/29 05:38:53;;;;;;;6.40;2.08;;;25.60;87.20;;;;;;5033506;28;20029;-26
2022/07/29 05:41:19;;;;;;;2.30;2.00;;;25.70;87.20;;;;;;5033757;28;20383;-26
2022/07/29 05:43:45;;;;;;;2.75;2.10;;;25.70;87.40;;;;;;5033439;28;20080;-26
2022/07/29 05:46:10;;;;;;;3.72;2.03;;;25.70;87.30;;;;;;5033469;28;20064;-26
2022/07/29 05:48:36;;;;;;;2.75;2.03;;;25.70;87.40;;;;;;5033035;28;20049;-26
2022/07/29 05:51:02;;;;;;;3.72;2.30;;;25.70;87.50;;;;;;5033304;28;20060;-25
2022/07/29 05:53:27;;;;;;;4.18;1.83;;;25.70;87.50;;;;;;5033297;28;20527;-26
2022/07/29 05:55:53;;;;;;;2.92;2.00;;;25.70;87.60;;;;;;5033212;28;20030;-26
2022/07/29 05:58:19;;;;;;;3.50;1.83;;;25.70;87.60;;;;;;5033028;28;20332;-26
2022/07/29 06:00:45;;;;;;;2.70;1.80;;;25.70;87.60;;;;;;5033105;28;20025;-25
2022/07/29 06:03:11;;;;;;;3.13;2.17;;;25.70;87.70;;;;;;5033134;28;20032;-26
2022/07/29 06:05:37;;;;;;;5.55;2.22;;;25.70;87.70;;;;;;5033111;28;20026;-26
2022/07/29 06:08:05;;;;;;;3.72;1.98;;;25.70;87.70;;;;;;5032880;28;20076;-25
2022/07/29 06:10:31;;;;;;;4.75;2.13;;;25.70;87.80;;;;;;5032841;28;20036;-26
2022/07/29 06:12:56;;;;;;;3.75;2.17;;;25.70;87.90;;;;;;5032810;28;20471;-26
2022/07/29 06:15:22;;;;;;;2.90;2.10;;;25.70;87.90;;;;;;5032969;28;20463;-26
2022/07/29 06:17:48;;;;;;;2.22;1.83;;;25.70;87.90;;;;;;5032793;28;20025;-26
2022/07/29 06:20:13;;;;;;;3.97;1.98;;;25.70;87.90;;;;;;5032627;28;20029;-26
2022/07/29 06:22:39;;;;;;;3.10;2.30;;;25.70;88.00;;;;;;5032766;28;20033;-26
2022/07/29 06:25:05;;;;;;;3.85;2.30;;;25.70;88.10;;;;;;5032716;28;20087;-26
2022/07/29 06:27:31;;;;;;;2.72;1.80;;;25.60;88.00;;;;;;5032439;28;20049;-26
2022/07/29 06:29:56;;;;;;;3.58;2.35;;;25.70;88.00;;;;;;5032210;28;20053;-26
2022/07/29 06:32:23;;;;;;;2.92;2.05;;;25.70;88.10;;;;;;5032640;28;20065;-25
2022/07/29 06:34:49;;;;;;;4.18;2.03;;;25.70;88.10;;;;;;5032632;28;20056;-26
2022/07/29 06:37:14;;;;;;;2.60;2.20;;;25.70;88.20;;;;;;5032049;28;20391;-26
2022/07/29 06:39:40;;;;;;;3.97;2.10;;;25.70;88.10;;;;;;5031839;28;20025;-26
2022/07/29 06:42:06;;;;;;;3.60;2.33;;;25.70;88.20;;;;;;5032275;28;20084;-26
2022/07/29 06:44:35;;;;;;;2.60;2.03;;;25.70;88.20;;;;;;5032388;28;20028;-26
2022/07/29 06:47:01;;;;;;;2.70;2.10;;;25.70;88.20;;;;;;5032395;28;20029;-26
2022/07/29 06:49:27;;;;;;;2.25;1.60;;;25.70;88.10;;;;;;5032023;28;20116;-26
2022/07/29 06:51:54;;;;;;;3.20;2.20;;;25.80;88.20;;;;;;5032205;28;20097;-26
2022/07/29 06:54:19;;;;;;;3.22;2.20;;;25.80;88.20;;;;;;5032263;28;20018;-26
2022/07/29 06:56:45;;;;;;;3.15;2.10;;;25.80;88.20;;;;;;5032045;28;20029;-26
2022/07/29 06:59:12;;;;;;;2.78;2.00;;;25.80;88.20;;;;;;5031965;28;20041;-26
2022/07/29 07:01:43;;;;;;;2.65;1.83;;;25.80;88.10;;;;;;5032001;28;20483;-26
2022/07/29 07:04:11;;;;;;;3.53;2.00;;;25.80;88.10;;;;;;5032189;28;20033;-26
2022/07/29 07:06:37;;;;;;;2.85;2.03;;;25.80;88.10;;;;;;5032087;28;20025;-26
2022/07/29 07:09:03;;;;;;;4.25;1.90;;;25.80;88.10;;;;;;5031766;28;20064;-26
2022/07/29 07:11:29;;;;;;;4.57;2.10;;;25.70;88.80;;;;;;5031861;28;20057;-26
2022/07/29 07:13:54;;;;;;;2.40;1.95;;;25.80;88.10;;;;;;5031964;28;20525;-25
2022/07/29 07:16:20;;;;;;;2.53;1.77;;;25.70;88.10;;;;;;5031887;28;20040;-26
2022/07/29 07:18:45;;;;;;;3.00;2.20;;;25.70;88.10;;;;;;5031721;28;20025;-26
2022/07/29 07:21:11;;;;;;;3.00;1.98;;;25.80;88.10;;;;;;5031844;28;20028;-26
2022/07/29 07:23:37;;;;;;;2.28;1.90;;;25.70;88.10;;;;;;5031843;28;20068;-26
2022/07/29 07:26:04;;;;;;;2.38;1.77;;;25.70;88.10;;;;;;5031767;28;20029;-26
2022/07/29 07:28:30;;;;;;;4.65;2.72;;;25.80;88.20;;;;;;5031505;28;20021;-26
2022/07/29 07:30:56;;;;;;;15.40;2.60;;;25.70;89.90;;;;;;5031464;28;20120;-25
2022/07/29 07:33:21;;;;;;;10.27;3.08;;;25.50;91.00;;;;;;5031789;28;20041;-26
2022/07/29 07:35:47;;;;;;;6.30;2.70;;;25.30;91.80;;;;;;5031718;28;20029;-26
2022/07/29 07:38:13;;;;;;;4.07;2.85;;;25.20;91.60;;;;;;5031470;28;20033;-25
2022/07/29 07:40:40;;;;;;;5.63;2.28;;;25.30;91.50;;;;;;5031543;28;20096;-26
2022/07/29 07:43:05;;;;;;;7.07;2.22;;;25.40;91.30;;;;;;5013945;28;20025;-26
2022/07/29 07:45:32;;;;;;;7.63;2.60;;;25.50;91.10;;;;;;5031625;28;20026;-25
2022/07/29 07:47:58;;;;;;;4.32;2.30;;;25.50;91.00;;;;;;5031665;28;20025;-26
2022/07/29 07:50:24;;;;;;;10.10;2.80;;;25.60;90.90;;;;;;5034201;28;20382;-26
2022/07/29 07:52:52;;;;;;;6.78;2.40;;;25.60;90.90;;;;;;5035506;28;20083;-26
2022/07/29 07:55:19;;;;;;;4.95;2.72;;;25.60;90.70;;;;;;5035490;28;20402;-26
2022/07/29 07:57:46;;;;;;;5.28;2.80;;;25.70;90.70;;;;;;5035424;28;20022;-25
2022/07/29 08:00:14;;;;;;;6.22;2.50;;;25.70;90.60;;;;;;5035218;28;20316;-26
2022/07/29 08:02:40;;;;;;;8.18;2.80;;;25.70;90.50;;;;;;5017760;28;20492;-26
2022/07/29 08:05:07;;;;;;;3.30;2.15;;;25.70;90.40;;;;;;5035409;28;20025;-25
2022/07/29 08:07:33;;;;;;;6.07;2.30;;;25.80;90.40;;;;;;5035203;28;20028;-26
2022/07/29 08:09:59;;;;;;;8.25;2.20;;;25.80;90.30;;;;;;5034951;28;20030;-25
2022/07/29 08:12:24;;;;;;;2.72;2.25;;;25.80;90.20;;;;;;5035185;28;20430;-25
2022/07/29 08:14:50;;;;;;;5.30;2.20;;;25.80;90.10;;;;;;5035136;28;20072;-25
2022/07/29 08:17:16;;;;;;;7.70;2.70;;;25.80;90.10;;;;;;5035151;28;20148;-25
2022/07/29 08:19:41;;;;;;;5.38;2.42;;;25.80;90.00;;;;;;5034924;28;20044;-26
2022/07/29 08:22:07;;;;;;;3.90;2.20;;;25.80;90.00;;;;;;5035349;28;20485;-25
2022/07/29 08:24:52;;;;;;;9.10;2.75;;;25.80;89.90;;;;;;5034964;28;20522;-25
2022/07/29 08:27:19;;;;;;;6.22;2.80;;;25.80;90.60;;;;;;5034931;28;20037;-25
2022/07/29 08:29:45;;;;;;;4.53;2.47;;;25.80;91.10;;;;;;5034552;28;20029;-25
2022/07/29 08:32:11;;;;;;;4.72;2.50;;;25.80;91.10;;;;;;5034836;28;20025;-25
2022/07/29 08:34:36;;;;;;;7.60;2.60;;;25.80;90.90;;;;;;5034650;28;20109;-25
2022/07/29 08:37:02;;;;;;;4.13;2.28;;;25.90;90.70;;;;;;5034814;28;20029;-25
2022/07/29 08:39:28;;;;;;;4.18;2.17;;;26.00;90.60;;;;;;5034509;28;20076;-25
2022/07/29 08:41:54;;;;;;;5.80;2.70;;;26.10;90.40;;;;;;5034559;28;20502;-25
2022/07/29 08:44:21;;;;;;;6.10;2.35;;;26.10;90.30;;;;;;5034623;28;20087;-25
2022/07/29 08:46:49;;;;;;;2.25;1.95;;;26.20;90.20;;;;;;5034701;28;20025;-25
2022/07/29 08:49:15;;;;;;;4.07;2.45;;;26.20;90.10;;;;;;5034197;28;20387;-25
2022/07/29 08:51:41;;;;;;;3.58;2.33;;;26.20;90.00;;;;;;5034445;28;20427;-25
2022/07/29 08:54:09;;;;;;;5.20;2.45;;;26.20;90.00;;;;;;5034478;28;20029;-25
2022/07/29 08:56:35;;;;;;;3.65;2.30;;;26.30;89.90;;;;;;5034391;28;20026;-25
2022/07/29 08:59:04;;;;;;;3.65;2.28;;;26.30;89.80;;;;;;5034090;28;20104;-25
2022/07/29 09:01:33;;;;;;;3.92;2.17;;;26.20;89.70;;;;;;5033166;28;20116;-25
2022/07/29 09:04:01;;;;;;;5.32;2.45;;;26.20;89.70;;;;;;5034225;28;20033;-25
2022/07/29 09:06:33;;;;;;;4.90;2.33;;;26.20;89.70;;;;;;5034244;28;20049;-25
2022/07/29 09:08:59;;;;;;;4.55;2.30;;;26.20;89.60;;;;;;5016079;28;20108;-25
2022/07/29 09:11:25;;;;;;;3.47;2.25;;;26.20;89.50;;;;;;5034097;28;20025;-25
2022/07/29 09:13:51;;;;;;;3.80;2.50;;;26.20;89.50;;;;;;5034217;28;20026;-25
2022/07/29 09:16:17;;;;;;;4.80;2.53;;;26.20;89.40;;;;;;5033922;28;20022;-25
2022/07/29 09:18:45;;;;;;;3.65;2.38;;;26.30;89.40;;;;;;5033750;28;20025;-25
2022/07/29 09:24:11;;;;;;;3.55;2.08;;;26.40;89.10;;;;;;5034212;28;20064;-25
2022/07/29 09:26:43;;;;;;;2.95;1.92;;;26.40;89.00;;;;;;5033782;28;20380;-25
2022/07/29 09:29:19;;;;;;;3.15;2.15;;;26.40;88.80;;;;;;5033507;28;20494;-25
2022/07/29 09:31:50;;;;;;;2.88;2.15;;;26.40;88.80;;;;;;5033630;28;20052;-25
2022/07/29 09:34:31;;;;;;;4.80;2.20;;;26.30;88.80;;;;;;5016078;28;20025;-25
2022/07/29 09:36:57;;;;;;;2.95;2.30;;;26.30;88.80;;;;;;5033671;28;20382;-25
2022/07/29 09:39:45;;;;;;;3.63;2.33;;;26.40;88.90;;;;;;5015452;28;20112;-25
2022/07/29 09:42:11;;;;;;;2.78;2.30;;;26.40;88.80;;;;;;5033510;28;20029;-25
2022/07/29 09:44:42;;;;;;;4.38;2.25;;;26.30;88.80;;;;;;5033574;28;20053;-25
2022/07/29 09:47:08;;;;;;;3.58;2.20;;;26.40;88.70;;;;;;5033461;28;20021;-25
2022/07/29 09:49:50;;;;;;;3.13;2.20;;;26.40;88.80;;;;;;5033033;28;20079;-25
2022/07/29 09:52:16;;;;;;;3.60;2.00;;;26.40;88.60;;;;;;5033290;28;20026;-25
2022/07/29 09:54:42;;;;;;;3.08;2.45;;;26.40;88.70;;;;;;5033257;28;20028;-25
2022/07/29 09:57:20;;;;;;;4.85;2.10;;;26.40;88.80;;;;;;5033219;28;20053;-25
2022/07/29 09:59:56;;;;;;;2.30;1.92;;;26.40;88.80;;;;;;5033079;28;20613;-25
2022/07/29 10:02:22;;;;;;;2.53;1.95;;;26.40;88.80;;;;;;5033177;28;20112;-25
2022/07/29 10:04:48;;;;;;;2.42;2.10;;;26.40;88.90;;;;;;5033132;28;20105;-25
2022/07/29 10:07:14;;;;;;;4.50;2.13;;;26.40;89.00;;;;;;5033079;28;20036;-25
2022/07/29 10:09:54;;;;;;;2.65;2.00;;;26.30;89.00;;;;;;5032743;28;20022;-25
2022/07/29 10:12:19;;;;;;;3.05;2.28;;;26.30;89.20;;;;;;5032855;28;20021;-25
2022/07/29 10:14:46;;;;;;;3.72;2.30;;;26.30;89.60;;;;;;5032847;28;20383;-25
2022/07/29 10:17:11;;;;;;;2.83;2.00;;;26.30;89.90;;;;;;5032864;28;20017;-25
2022/07/29 10:19:38;;;;;;;4.03;2.30;;;26.30;90.00;;;;;;5032625;28;20119;-25
2022/07/29 10:22:07;;;;;;;3.58;2.05;;;26.20;90.10;;;;;;5032724;28;20056;-25
2022/07/29 10:24:33;;;;;;;3.10;2.25;;;26.20;90.20;;;;;;5032739;28;20403;-25
2022/07/29 10:27:01;;;;;;;4.43;2.35;;;26.20;90.20;;;;;;5032549;28;20017;-25
2022/07/29 10:29:26;;;;;;;5.00;2.50;;;26.20;90.30;;;;;;5032344;28;20486;-25
2022/07/29 10:32:04;;;;;;;6.30;2.50;;;26.10;90.30;;;;;;5032524;28;20088;-25
2022/07/29 10:34:33;;;;;;;4.57;2.45;;;26.10;90.40;;;;;;5032569;28;20430;-25
2022/07/29 10:37:12;;;;;;;4.80;2.35;;;26.10;90.50;;;;;;5032804;28;20400;-25
2022/07/29 10:39:57;;;;;;;3.40;2.30;;;26.10;90.50;;;;;;5032232;28;20021;-25
2022/07/29 10:42:25;;;;;;;3.22;2.20;;;26.10;90.60;;;;;;5032426;28;20026;-25
2022/07/29 10:44:52;;;;;;;3.90;2.38;;;26.00;90.70;;;;;;5032427;28;20475;-25
2022/07/29 10:47:25;;;;;;;3.95;2.70;;;26.00;90.70;;;;;;5032342;28;20029;-25
2022/07/29 10:50:03;;;;;;;5.43;2.40;;;26.00;90.90;;;;;;5032077;28;20077;-25
2022/07/29 10:52:58;;;;;;;7.18;3.05;;;26.00;91.00;;;;;;5032068;28;20037;-25
2022/07/29 10:55:42;;;;;;;10.02;3.00;;;25.60;92.80;;;;;;5030655;28;20086;-25
2022/07/29 10:58:23;;;;;;;13.45;3.15;;;25.30;92.80;;;;;;5032185;28;20041;-25
2022/07/29 11:00:53;;;;;;;7.47;2.65;;;25.30;92.90;;;;;;5032120;28;20053;-25
2022/07/29 11:03:49;;;;;;;9.27;3.28;;;25.30;92.80;;;;;;5032149;28;20479;-26
2022/07/29 11:06:15;;;;;;;10.18;3.42;;;25.40;92.70;;;;;;5032146;28;20398;-25
2022/07/29 11:08:42;;;;;;;7.05;3.13;;;25.40;92.60;;;;;;5031656;28;20030;-26
2022/07/29 11:11:19;;;;;;;8.80;3.22;;;25.50;92.80;;;;;;5031899;28;20022;-26
2022/07/29 11:13:50;;;;;;;8.45;3.10;;;25.50;92.90;;;;;;5032006;28;20018;-25
2022/07/29 11:16:17;;;;;;;11.45;3.55;;;25.50;92.80;;;;;;5032002;28;20040;-25
2022/07/29 11:19:10;;;;;;;8.65;3.22;;;25.50;92.80;;;;;;5031703;28;20032;-25
2022/07/29 11:21:37;;;;;;;8.82;3.70;;;25.60;93.10;;;;;;5031818;28;20021;-25
2022/07/29 11:24:12;;;;;;;9.57;2.72;;;25.60;92.90;;;;;;5031348;28;20030;-25
2022/07/29 11:26:38;;;;;;;10.27;3.45;;;25.60;93.00;;;;;;5031788;28;20542;-25
2022/07/29 11:29:15;;;;;;;8.88;3.00;;;25.60;92.90;;;;;;5031539;28;20025;-25
2022/07/29 11:31:43;;;;;;;8.57;3.47;;;25.60;93.00;;;;;;5054912;22;20088;-24
2022/07/29 11:34:19;;;;;;;11.02;3.20;;;25.60;93.00;;;;;;5033318;28;20092;-24
2022/07/29 11:37:09;;;;;;;9.82;3.28;;;25.60;93.00;;;;;;5033046;28;20024;-24
2022/07/29 11:39:47;;;;;;;9.07;2.78;;;25.60;93.00;;;;;;5031948;28;20116;-24
2022/07/29 11:42:24;;;;;;;5.47;2.97;;;25.60;93.00;;;;;;5032176;28;20029;-24
2022/07/29 11:44:54;;;;;;;7.35;3.10;;;25.60;93.00;;;;;;5032341;28;20053;-24
2022/07/29 11:47:23;;;;;;;8.93;3.10;;;25.70;93.10;;;;;;5032456;28;20021;-24
2022/07/29 11:49:51;;;;;;;6.00;2.90;;;25.70;93.10;;;;;;5013950;28;20036;-24
2022/07/29 11:52:18;;;;;;;5.78;2.58;;;25.70;93.00;;;;;;5032553;28;20026;-24
2022/07/29 11:54:45;;;;;;;7.55;2.72;;;25.70;93.00;;;;;;5014584;28;20140;-24
2022/07/29 11:57:10;;;;;;;6.18;2.67;;;25.70;93.00;;;;;;5032497;28;20025;-24
2022/07/29 11:59:43;;;;;;;8.65;2.63;;;25.70;93.00;;;;;;5032248;28;20037;-23
2022/07/29 12:02:09;;;;;;;6.18;2.50;;;25.80;93.10;;;;;;5014203;28;20053;-24
2022/07/29 12:04:56;;;;;;;6.10;3.00;;;25.80;93.40;;;;;;5032041;28;20120;-24
2022/07/29 12:07:32;;;;;;;5.75;2.58;;;25.80;93.10;;;;;;5032288;28;20367;-24
2022/07/29 12:09:59;;;;;;;6.43;2.67;;;25.80;93.10;;;;;;5032014;28;20033;-24
2022/07/29 12:12:25;;;;;;;8.90;2.78;;;25.80;93.10;;;;;;5031951;28;20037;-24
2022/07/29 12:14:51;;;;;;;6.32;2.67;;;25.80;93.00;;;;;;5031793;28;20064;-24
2022/07/29 12:17:33;;;;;;;7.85;2.63;;;25.80;93.00;;;;;;5031867;28;20465;-24
2022/07/29 12:20:04;;;;;;;7.65;2.83;;;25.80;92.90;;;;;;5031462;28;20044;-24
2022/07/29 12:22:40;;;;;;;6.28;2.28;;;25.80;92.90;;;;;;5032246;28;20049;-24
2022/07/29 12:25:07;;;;;;;8.68;2.80;;;25.80;92.80;;;;;;5037330;28;20554;-24
2022/07/29 12:27:33;;;;;;;7.10;2.90;;;25.80;92.90;;;;;;5045287;28;20041;-24
2022/07/29 12:30:03;;;;;;;7.85;2.58;;;25.80;92.90;;;;;;5045735;28;20048;-24
2022/07/29 12:32:41;;;;;;;6.10;2.70;;;25.80;92.80;;;;;;5036691;28;20092;-24
2022/07/29 12:35:16;;;;;;;5.82;2.50;;;25.80;92.80;;;;;;5032265;28;20479;-24
2022/07/29 12:37:44;;;;;;;5.93;2.65;;;25.80;92.80;;;;;;5039124;28;20075;-24
2022/07/29 12:40:12;;;;;;;5.93;2.60;;;25.80;92.90;;;;;;5038643;28;20061;-24
2022/07/29 12:42:39;;;;;;;6.30;2.60;;;25.70;92.80;;;;;;5019696;28;20052;-24
2022/07/29 12:45:05;;;;;;;4.75;2.20;;;25.70;92.80;;;;;;5037332;28;20100;-24
2022/07/29 12:47:32;;;;;;;6.30;2.58;;;25.70;92.90;;;;;;5037265;28;20116;-24
2022/07/29 12:50:27;;;;;;;5.15;2.55;;;25.70;92.90;;;;;;5036977;28;20032;-24
2022/07/29 12:52:52;;;;;;;6.38;2.60;;;25.70;92.90;;;;;;5021880;28;20065;-24
2022/07/29 12:55:43;;;;;;;4.20;2.20;;;25.60;92.90;;;;;;5035092;28;20061;-25
2022/07/29 12:58:09;;;;;;;6.93;2.60;;;25.60;93.00;;;;;;5035663;28;20029;-25
2022/07/29 13:00:34;;;;;;;7.72;3.08;;;25.60;93.00;;;;;;5036293;28;20027;-24